sensor_id;sensor_type;location;lat;lon;timestamp;pressure;altitude;pressure_sealevel;temperature;humidity
43155;BME280;34212;51.018;13.586;2022-09-17T00:04:02;96820.13;;;13.08;62.35
43155;BME280;34212;51.018;13.586;2022-09-17T00:09:05;96813.34;;;13.06;62.80
43155;BME280;34212;51.018;13.586;2022-09-17T00:14:08;96832.66;;;13.08;62.56
43155;BME280;34212;51.018;13.586;2022-09-17T00:19:12;96817.22;;;13.10;62.51
43155;BME280;34212;51.018;13.586;2022-09-17T00:24:14;96823.19;;;13.12;62.81
43155;BME280;34212;51.018;13.586;2022-09-17T00:29:16;96830.53;;;13.16;62.62
43155;BME280;34212;51.018;13.586;2022-09-17T00:34:17;96822.06;;;13.20;62.41
43155;BME280;34212;51.018;13.586;2022-09-17T00:39:18;96832.56;;;13.21;62.80
43155;BME280;34212;51.018;13.586;2022-09-17T00:44:37;96824.53;;;13.21;62.79
43155;BME280;34212;51.018;13.586;2022-09-17T00:49:39;96827.78;;;13.23;62.45
43155;BME280;34212;51.018;13.586;2022-09-17T00:54:41;96832.34;;;13.23;62.37
43155;BME280;34212;51.018;13.586;2022-09-17T00:59:44;96819.19;;;13.21;62.50
43155;BME280;34212;51.018;13.586;2022-09-17T01:04:46;96814.72;;;13.15;62.47
43155;BME280;34212;51.018;13.586;2022-09-17T01:40:47;96817.66;;;13.07;63.33
43155;BME280;34212;51.018;13.586;2022-09-17T01:51:22;96828.72;;;13.10;63.29
43155;BME280;34212;51.018;13.586;2022-09-17T01:56:25;96825.84;;;13.12;62.88
43155;BME280;34212;51.018;13.586;2022-09-17T02:01:28;96820.69;;;13.10;63.35
43155;BME280;34212;51.018;13.586;2022-09-17T02:06:33;96823.00;;;13.07;63.42
43155;BME280;34212;51.018;13.586;2022-09-17T02:11:36;96829.97;;;13.08;63.47
43155;BME280;34212;51.018;13.586;2022-09-17T02:16:40;96837.00;;;13.09;63.66
43155;BME280;34212;51.018;13.586;2022-09-17T02:21:51;96818.84;;;13.11;63.35
43155;BME280;34212;51.018;13.586;2022-09-17T02:27:08;96818.25;;;13.09;63.35
43155;BME280;34212;51.018;13.586;2022-09-17T02:32:12;96816.59;;;13.08;63.64
43155;BME280;34212;51.018;13.586;2022-09-17T02:37:13;96828.34;;;13.07;63.43
43155;BME280;34212;51.018;13.586;2022-09-17T02:52:31;96821.69;;;13.16;63.78
43155;BME280;34212;51.018;13.586;2022-09-17T02:57:48;96817.38;;;13.15;63.87
43155;BME280;34212;51.018;13.586;2022-09-17T03:02:58;96808.50;;;13.14;64.08
43155;BME280;34212;51.018;13.586;2022-09-17T03:08:01;96807.25;;;13.17;63.78
43155;BME280;34212;51.018;13.586;2022-09-17T03:13:02;96812.41;;;13.18;63.96
43155;BME280;34212;51.018;13.586;2022-09-17T03:18:04;96815.09;;;13.18;64.04
43155;BME280;34212;51.018;13.586;2022-09-17T03:23:05;96810.31;;;13.21;64.69
43155;BME280;34212;51.018;13.586;2022-09-17T03:28:06;96823.69;;;13.21;64.58
43155;BME280;34212;51.018;13.586;2022-09-17T03:33:08;96825.94;;;13.24;64.85
43155;BME280;34212;51.018;13.586;2022-09-17T03:38:09;96823.88;;;13.26;64.58
43155;BME280;34212;51.018;13.586;2022-09-17T03:43:11;96830.88;;;13.27;65.09
43155;BME280;34212;51.018;13.586;2022-09-17T03:48:12;96834.41;;;13.27;65.10
43155;BME280;34212;51.018;13.586;2022-09-17T03:53:14;96838.91;;;13.27;64.80
43155;BME280;34212;51.018;13.586;2022-09-17T03:58:15;96832.75;;;13.26;64.83
43155;BME280;34212;51.018;13.586;2022-09-17T04:03:16;96835.25;;;13.21;65.15
43155;BME280;34212;51.018;13.586;2022-09-17T04:08:18;96840.00;;;13.19;65.57
43155;BME280;34212;51.018;13.586;2022-09-17T04:13:19;96849.50;;;13.15;65.55
43155;BME280;34212;51.018;13.586;2022-09-17T04:18:21;96846.22;;;13.13;66.15
43155;BME280;34212;51.018;13.586;2022-09-17T04:23:22;96846.22;;;13.13;66.08
43155;BME280;34212;51.018;13.586;2022-09-17T04:28:23;96831.66;;;13.09;66.36
43155;BME280;34212;51.018;13.586;2022-09-17T04:33:25;96841.53;;;13.08;66.81
43155;BME280;34212;51.018;13.586;2022-09-17T04:38:26;96851.19;;;13.09;66.86
43155;BME280;34212;51.018;13.586;2022-09-17T04:43:27;96837.19;;;13.07;66.96
43155;BME280;34212;51.018;13.586;2022-09-17T04:48:29;96841.75;;;13.07;67.13
43155;BME280;34212;51.018;13.586;2022-09-17T04:53:30;96848.97;;;13.06;67.53
43155;BME280;34212;51.018;13.586;2022-09-17T04:58:31;96856.38;;;13.04;67.74
43155;BME280;34212;51.018;13.586;2022-09-17T05:03:33;96862.53;;;13.05;67.83
43155;BME280;34212;51.018;13.586;2022-09-17T05:08:34;96850.66;;;13.01;68.08
43155;BME280;34212;51.018;13.586;2022-09-17T05:13:35;96854.38;;;13.00;67.99
43155;BME280;34212;51.018;13.586;2022-09-17T05:18:37;96862.59;;;12.98;68.49
43155;BME280;34212;51.018;13.586;2022-09-17T05:23:38;96862.22;;;12.94;68.76
43155;BME280;34212;51.018;13.586;2022-09-17T05:28:39;96858.72;;;12.94;68.75
43155;BME280;34212;51.018;13.586;2022-09-17T05:33:41;96860.97;;;12.97;69.00
43155;BME280;34212;51.018;13.586;2022-09-17T05:38:42;96857.84;;;13.00;69.20
43155;BME280;34212;51.018;13.586;2022-09-17T05:43:43;96865.84;;;13.07;68.97
43155;BME280;34212;51.018;13.586;2022-09-17T05:48:45;96869.13;;;13.09;69.17
43155;BME280;34212;51.018;13.586;2022-09-17T05:53:46;96867.69;;;13.06;69.22
43155;BME280;34212;51.018;13.586;2022-09-17T05:58:47;96872.38;;;13.11;69.24
43155;BME280;34212;51.018;13.586;2022-09-17T06:03:49;96875.00;;;13.17;69.29
43155;BME280;34212;51.018;13.586;2022-09-17T06:08:50;96875.00;;;13.17;69.61
43155;BME280;34212;51.018;13.586;2022-09-17T06:13:52;96881.63;;;13.15;70.04
43155;BME280;34212;51.018;13.586;2022-09-17T06:18:53;96879.97;;;13.14;69.90
43155;BME280;34212;51.018;13.586;2022-09-17T06:23:55;96876.03;;;13.16;70.20
43155;BME280;34212;51.018;13.586;2022-09-17T06:28:57;96874.78;;;13.19;70.11
43155;BME280;34212;51.018;13.586;2022-09-17T06:33:58;96877.66;;;13.17;70.59
43155;BME280;34212;51.018;13.586;2022-09-17T06:39:02;96874.41;;;13.15;70.73
43155;BME280;34212;51.018;13.586;2022-09-17T06:44:03;96880.59;;;13.16;70.67
43155;BME280;34212;51.018;13.586;2022-09-17T06:49:13;96878.72;;;13.16;70.83
43155;BME280;34212;51.018;13.586;2022-09-17T07:01:35;96874.69;;;13.07;71.26
43155;BME280;34212;51.018;13.586;2022-09-17T07:08:19;96882.31;;;13.04;71.71
43155;BME280;34212;51.018;13.586;2022-09-17T07:13:13;96884.81;;;12.99;72.33
43155;BME280;34212;51.018;13.586;2022-09-17T07:18:14;96891.28;;;12.91;72.65
43155;BME280;34212;51.018;13.586;2022-09-17T07:23:16;96893.56;;;12.87;73.01
43155;BME280;34212;51.018;13.586;2022-09-17T07:28:17;96888.66;;;12.84;73.19
43155;BME280;34212;51.018;13.586;2022-09-17T07:33:19;96892.78;;;12.80;73.63
43155;BME280;34212;51.018;13.586;2022-09-17T07:38:23;96905.28;;;12.86;74.18
43155;BME280;34212;51.018;13.586;2022-09-17T07:43:25;96908.16;;;12.91;74.05
43155;BME280;34212;51.018;13.586;2022-09-17T07:48:27;96919.19;;;13.02;74.42
43155;BME280;34212;51.018;13.586;2022-09-17T07:53:29;96933.56;;;13.07;74.43
43155;BME280;34212;51.018;13.586;2022-09-17T07:58:31;96939.53;;;13.09;74.27
43155;BME280;34212;51.018;13.586;2022-09-17T08:03:34;96942.78;;;13.11;74.21
43155;BME280;34212;51.018;13.586;2022-09-17T08:08:35;96953.69;;;13.16;74.04
43155;BME280;34212;51.018;13.586;2022-09-17T08:13:37;96963.94;;;13.20;73.92
43155;BME280;34212;51.018;13.586;2022-09-17T08:18:39;96963.31;;;13.24;73.45
43155;BME280;34212;51.018;13.586;2022-09-17T08:23:40;96968.03;;;13.29;73.66
43155;BME280;34212;51.018;13.586;2022-09-17T08:28:43;96961.19;;;13.39;73.41
43155;BME280;34212;51.018;13.586;2022-09-17T08:33:44;96964.63;;;13.47;72.91
43155;BME280;34212;51.018;13.586;2022-09-17T08:38:46;96975.53;;;13.45;72.51
43155;BME280;34212;51.018;13.586;2022-09-17T08:43:53;96985.31;;;13.58;71.87
43155;BME280;34212;51.018;13.586;2022-09-17T08:49:06;96986.84;;;13.72;71.39
43155;BME280;34212;51.018;13.586;2022-09-17T08:59:19;96995.97;;;13.90;70.99
43155;BME280;34212;51.018;13.586;2022-09-17T09:09:44;96986.47;;;14.12;69.75
43155;BME280;34212;51.018;13.586;2022-09-17T09:14:47;96980.53;;;14.28;70.07
43155;BME280;34212;51.018;13.586;2022-09-17T09:19:50;96983.72;;;14.37;69.93
43155;BME280;34212;51.018;13.586;2022-09-17T09:30:02;96987.38;;;14.43;69.01
43155;BME280;34212;51.018;13.586;2022-09-17T09:35:17;96988.75;;;14.52;69.39
43155;BME280;34212;51.018;13.586;2022-09-17T09:40:25;97002.16;;;14.52;68.45
43155;BME280;34212;51.018;13.586;2022-09-17T10:01:27;96995.78;;;15.13;69.26
43155;BME280;34212;51.018;13.586;2022-09-17T10:06:30;96991.66;;;14.99;67.97
43155;BME280;34212;51.018;13.586;2022-09-17T10:11:31;97001.50;;;15.05;68.05
43155;BME280;34212;51.018;13.586;2022-09-17T10:16:35;97011.22;;;14.88;65.64
43155;BME280;34212;51.018;13.586;2022-09-17T10:21:37;97009.91;;;14.60;66.21
43155;BME280;34212;51.018;13.586;2022-09-17T10:26:42;97012.06;;;14.51;66.58
43155;BME280;34212;51.018;13.586;2022-09-17T10:31:47;97033.41;;;14.21;67.24
43155;BME280;34212;51.018;13.586;2022-09-17T10:36:50;97015.88;;;13.75;68.08
43155;BME280;34212;51.018;13.586;2022-09-17T10:47:12;97002.00;;;13.60;70.76
43155;BME280;34212;51.018;13.586;2022-09-17T10:57:30;97007.13;;;14.12;71.70
43155;BME280;34212;51.018;13.586;2022-09-17T11:08:18;97004.63;;;14.10;70.71
43155;BME280;34212;51.018;13.586;2022-09-17T11:13:23;97005.97;;;14.01;70.86
43155;BME280;34212;51.018;13.586;2022-09-17T11:18:31;97000.03;;;13.99;71.31
43155;BME280;34212;51.018;13.586;2022-09-17T11:23:51;96998.81;;;13.95;71.64
43155;BME280;34212;51.018;13.586;2022-09-17T11:34:32;96994.22;;;14.20;71.28
43155;BME280;34212;51.018;13.586;2022-09-17T11:39:41;97009.38;;;14.08;69.90
43155;BME280;34212;51.018;13.586;2022-09-17T11:49:51;97027.03;;;13.72;69.55
43155;BME280;34212;51.018;13.586;2022-09-17T11:55:08;97028.59;;;13.61;70.32
43155;BME280;34212;51.018;13.586;2022-09-17T12:00:17;97020.75;;;13.60;70.58
43155;BME280;34212;51.018;13.586;2022-09-17T12:05:27;97019.00;;;13.72;70.80
43155;BME280;34212;51.018;13.586;2022-09-17T12:15:43;97004.19;;;14.13;71.24
43155;BME280;34212;51.018;13.586;2022-09-17T12:20:53;97001.50;;;14.13;71.22
43155;BME280;34212;51.018;13.586;2022-09-17T12:26:04;97001.50;;;14.13;71.23
43155;BME280;34212;51.018;13.586;2022-09-17T12:31:13;96996.69;;;14.22;70.71
43155;BME280;34212;51.018;13.586;2022-09-17T12:36:20;96996.31;;;14.37;70.31
43155;BME280;34212;51.018;13.586;2022-09-17T12:41:28;96993.88;;;14.53;70.93
43155;BME280;34212;51.018;13.586;2022-09-17T12:51:46;96976.72;;;15.03;70.42
43155;BME280;34212;51.018;13.586;2022-09-17T13:01:52;96959.03;;;15.25;69.27
43155;BME280;34212;51.018;13.586;2022-09-17T13:12:09;96975.53;;;14.99;68.19
43155;BME280;34212;51.018;13.586;2022-09-17T13:17:17;96986.19;;;14.75;64.97
43155;BME280;34212;51.018;13.586;2022-09-17T13:22:25;96982.59;;;14.26;63.36
43155;BME280;34212;51.018;13.586;2022-09-17T13:27:28;96983.75;;;14.55;63.98
43155;BME280;34212;51.018;13.586;2022-09-17T13:37:37;96973.22;;;15.56;62.58
43155;BME280;34212;51.018;13.586;2022-09-17T13:42:44;96973.28;;;15.91;61.00
43155;BME280;34212;51.018;13.586;2022-09-17T13:48:02;96960.16;;;16.19;60.39
43155;BME280;34212;51.018;13.586;2022-09-17T14:08:46;96943.94;;;15.90;61.09
43155;BME280;34212;51.018;13.586;2022-09-17T14:13:51;96949.75;;;15.63;61.80
43155;BME280;34212;51.018;13.586;2022-09-17T14:19:00;96934.44;;;15.52;60.45
43155;BME280;34212;51.018;13.586;2022-09-17T14:24:03;96935.72;;;15.50;59.63
43155;BME280;34212;51.018;13.586;2022-09-17T14:34:32;96932.78;;;15.39;59.85
43155;BME280;34212;51.018;13.586;2022-09-17T14:39:37;96941.06;;;15.38;60.04
43155;BME280;34212;51.018;13.586;2022-09-17T14:44:45;96943.50;;;15.28;60.57
43155;BME280;34212;51.018;13.586;2022-09-17T14:49:49;96936.72;;;15.25;61.15
43155;BME280;34212;51.018;13.586;2022-09-17T15:00:15;96927.41;;;15.28;61.51
43155;BME280;34212;51.018;13.586;2022-09-17T15:10:21;96914.34;;;15.66;62.13
43155;BME280;34212;51.018;13.586;2022-09-17T15:15:23;96909.31;;;16.05;61.69
43155;BME280;34212;51.018;13.586;2022-09-17T15:20:27;96907.91;;;16.14;59.97
43155;BME280;34212;51.018;13.586;2022-09-17T15:25:29;96899.59;;;16.04;59.39
43155;BME280;34212;51.018;13.586;2022-09-17T15:30:31;96908.53;;;15.81;57.47
43155;BME280;34212;51.018;13.586;2022-09-17T15:35:33;96910.34;;;15.57;55.41
43155;BME280;34212;51.018;13.586;2022-09-17T15:40:41;96925.31;;;15.41;54.65
43155;BME280;34212;51.018;13.586;2022-09-17T15:45:42;96924.13;;;15.37;54.42
43155;BME280;34212;51.018;13.586;2022-09-17T15:50:51;96930.56;;;15.48;55.44
43155;BME280;34212;51.018;13.586;2022-09-17T15:56:01;96936.78;;;15.48;56.10
43155;BME280;34212;51.018;13.586;2022-09-17T16:11:19;96933.38;;;15.53;57.25
43155;BME280;34212;51.018;13.586;2022-09-17T16:16:26;96930.81;;;15.58;57.55
43155;BME280;34212;51.018;13.586;2022-09-17T16:21:28;96924.38;;;15.59;57.80
43155;BME280;34212;51.018;13.586;2022-09-17T16:26:31;96925.78;;;15.62;58.75
43155;BME280;34212;51.018;13.586;2022-09-17T16:31:33;96921.84;;;15.64;58.96
43155;BME280;34212;51.018;13.586;2022-09-17T16:36:35;96926.78;;;15.67;59.36
43155;BME280;34212;51.018;13.586;2022-09-17T16:41:36;96928.03;;;15.65;59.78
43155;BME280;34212;51.018;13.586;2022-09-17T16:46:38;96940.75;;;15.58;59.18
43155;BME280;34212;51.018;13.586;2022-09-17T16:51:40;96952.53;;;15.45;59.00
43155;BME280;34212;51.018;13.586;2022-09-17T16:56:41;96957.09;;;15.33;58.64
43155;BME280;34212;51.018;13.586;2022-09-17T17:01:42;96952.13;;;15.18;58.39
43155;BME280;34212;51.018;13.586;2022-09-17T17:06:44;96950.13;;;15.01;57.45
43155;BME280;34212;51.018;13.586;2022-09-17T17:11:45;96944.34;;;14.86;57.79
43155;BME280;34212;51.018;13.586;2022-09-17T17:16:46;96950.56;;;14.68;57.84
43155;BME280;34212;51.018;13.586;2022-09-17T17:21:51;96949.44;;;14.58;58.59
43155;BME280;34212;51.018;13.586;2022-09-17T17:26:52;96946.91;;;14.44;58.16
43155;BME280;34212;51.018;13.586;2022-09-17T17:31:54;96952.06;;;14.27;57.68
43155;BME280;34212;51.018;13.586;2022-09-17T17:36:55;96960.69;;;14.11;57.10
43155;BME280;34212;51.018;13.586;2022-09-17T17:41:56;96962.31;;;13.94;57.80
43155;BME280;34212;51.018;13.586;2022-09-17T17:46:58;96966.78;;;13.81;57.11
43155;BME280;34212;51.018;13.586;2022-09-17T17:51:59;96982.69;;;13.76;57.77
43155;BME280;34212;51.018;13.586;2022-09-17T17:57:01;96992.28;;;13.66;58.40
43155;BME280;34212;51.018;13.586;2022-09-17T18:02:02;96993.34;;;13.58;58.77
43155;BME280;34212;51.018;13.586;2022-09-17T18:07:04;97009.09;;;13.48;58.84
43155;BME280;34212;51.018;13.586;2022-09-17T18:12:05;97008.16;;;13.35;59.36
43155;BME280;34212;51.018;13.586;2022-09-17T18:17:07;97011.50;;;13.31;59.63
43155;BME280;34212;51.018;13.586;2022-09-17T18:22:08;97004.94;;;13.20;60.28
43155;BME280;34212;51.018;13.586;2022-09-17T18:27:09;97008.47;;;13.14;60.19
43155;BME280;34212;51.018;13.586;2022-09-17T18:32:11;97003.97;;;13.08;60.75
43155;BME280;34212;51.018;13.586;2022-09-17T18:37:12;97001.75;;;12.98;60.71
43155;BME280;34212;51.018;13.586;2022-09-17T18:42:13;97001.81;;;12.91;60.83
43155;BME280;34212;51.018;13.586;2022-09-17T18:47:15;97005.75;;;12.82;61.08
43155;BME280;34212;51.018;13.586;2022-09-17T18:52:17;96998.16;;;12.79;61.37
43155;BME280;34212;51.018;13.586;2022-09-17T18:57:18;97001.47;;;12.81;61.65
43155;BME280;34212;51.018;13.586;2022-09-17T19:02:20;97011.50;;;12.86;61.47
43155;BME280;34212;51.018;13.586;2022-09-17T19:07:21;97012.13;;;12.88;61.93
43155;BME280;34212;51.018;13.586;2022-09-17T19:12:23;97010.66;;;12.92;62.25
43155;BME280;34212;51.018;13.586;2022-09-17T19:17:24;97013.13;;;12.93;62.48
43155;BME280;34212;51.018;13.586;2022-09-17T19:22:26;97015.81;;;12.93;62.50
43155;BME280;34212;51.018;13.586;2022-09-17T19:27:28;97013.56;;;12.90;62.75
43155;BME280;34212;51.018;13.586;2022-09-17T19:32:29;97007.97;;;12.92;62.96
43155;BME280;34212;51.018;13.586;2022-09-17T19:37:31;97007.53;;;12.95;62.90
43155;BME280;34212;51.018;13.586;2022-09-17T19:42:33;97005.97;;;12.87;63.17
43155;BME280;34212;51.018;13.586;2022-09-17T19:47:34;96991.59;;;12.75;63.43
43155;BME280;34212;51.018;13.586;2022-09-17T19:52:36;96983.47;;;12.57;64.28
43155;BME280;34212;51.018;13.586;2022-09-17T19:57:37;96984.38;;;12.37;64.79
43155;BME280;34212;51.018;13.586;2022-09-17T20:02:39;96993.88;;;12.20;65.38
43155;BME280;34212;51.018;13.586;2022-09-17T20:07:40;96987.94;;;12.05;65.96
43155;BME280;34212;51.018;13.586;2022-09-17T20:12:42;96986.94;;;11.92;66.43
43155;BME280;34212;51.018;13.586;2022-09-17T20:17:44;96989.19;;;11.75;67.14
43155;BME280;34212;51.018;13.586;2022-09-17T20:22:45;96985.28;;;11.65;67.42
43155;BME280;34212;51.018;13.586;2022-09-17T20:27:49;96984.06;;;11.61;67.81
43155;BME280;34212;51.018;13.586;2022-09-17T20:32:53;96975.44;;;11.59;67.96
43155;BME280;34212;51.018;13.586;2022-09-17T20:37:54;96979.75;;;11.60;68.26
43155;BME280;34212;51.018;13.586;2022-09-17T20:43:16;96977.28;;;11.58;68.57
43155;BME280;34212;51.018;13.586;2022-09-17T20:48:17;96972.56;;;11.60;68.93
43155;BME280;34212;51.018;13.586;2022-09-17T20:53:18;96966.00;;;11.63;69.14
43155;BME280;34212;51.018;13.586;2022-09-17T20:58:20;96952.66;;;11.63;69.17
43155;BME280;34212;51.018;13.586;2022-09-17T21:03:22;96963.31;;;11.63;69.35
43155;BME280;34212;51.018;13.586;2022-09-17T21:08:23;96962.28;;;11.57;69.56
43155;BME280;34212;51.018;13.586;2022-09-17T21:13:24;96952.22;;;11.52;69.57
43155;BME280;34212;51.018;13.586;2022-09-17T21:18:26;96956.97;;;11.50;69.80
43155;BME280;34212;51.018;13.586;2022-09-17T21:23:28;96960.63;;;11.49;70.22
43155;BME280;34212;51.018;13.586;2022-09-17T21:28:30;96958.59;;;11.51;70.12
43155;BME280;34212;51.018;13.586;2022-09-17T21:33:32;96964.16;;;11.50;70.61
43155;BME280;34212;51.018;13.586;2022-09-17T21:38:33;96962.72;;;11.47;70.43
43155;BME280;34212;51.018;13.586;2022-09-17T21:43:35;96966.63;;;11.45;69.86
43155;BME280;34212;51.018;13.586;2022-09-17T21:48:40;96966.41;;;11.46;70.42
43155;BME280;34212;51.018;13.586;2022-09-17T21:53:42;96969.69;;;11.48;70.27
43155;BME280;34212;51.018;13.586;2022-09-17T21:58:44;96961.91;;;11.47;70.47
43155;BME280;34212;51.018;13.586;2022-09-17T22:03:46;96956.13;;;11.37;70.79
43155;BME280;34212;51.018;13.586;2022-09-17T22:08:48;96959.84;;;11.29;70.79
43155;BME280;34212;51.018;13.586;2022-09-17T22:13:51;96956.34;;;11.22;70.79
43155;BME280;34212;51.018;13.586;2022-09-17T22:18:53;96954.91;;;11.19;71.17
43155;BME280;34212;51.018;13.586;2022-09-17T22:23:56;96954.91;;;11.19;71.28
43155;BME280;34212;51.018;13.586;2022-09-17T22:29:01;96947.09;;;11.18;71.23
43155;BME280;34212;51.018;13.586;2022-09-17T22:34:06;96940.75;;;11.19;71.42
43155;BME280;34212;51.018;13.586;2022-09-17T22:39:08;96940.94;;;11.17;71.37
43155;BME280;34212;51.018;13.586;2022-09-17T22:44:11;96943.19;;;11.20;71.61
43155;BME280;34212;51.018;13.586;2022-09-17T22:49:13;96943.81;;;11.16;71.82
43155;BME280;34212;51.018;13.586;2022-09-17T22:54:15;96941.75;;;11.04;71.60
43155;BME280;34212;51.018;13.586;2022-09-17T22:59:17;96942.97;;;10.95;71.92
43155;BME280;34212;51.018;13.586;2022-09-17T23:04:18;96941.34;;;10.88;72.26
43155;BME280;34212;51.018;13.586;2022-09-17T23:09:20;96932.69;;;10.85;72.77
43155;BME280;34212;51.018;13.586;2022-09-17T23:14:21;96938.44;;;10.89;72.67
43155;BME280;34212;51.018;13.586;2022-09-17T23:19:22;96941.34;;;10.94;72.41
43155;BME280;34212;51.018;13.586;2022-09-17T23:24:23;96941.53;;;10.93;72.75
43155;BME280;34212;51.018;13.586;2022-09-17T23:29:25;96933.75;;;10.91;73.09
43155;BME280;34212;51.018;13.586;2022-09-17T23:34:26;96927.38;;;10.92;73.35
43155;BME280;34212;51.018;13.586;2022-09-17T23:39:27;96930.03;;;10.92;73.62
43155;BME280;34212;51.018;13.586;2022-09-17T23:44:29;96920.41;;;10.91;73.47
43155;BME280;34212;51.018;13.586;2022-09-17T23:49:30;96925.09;;;10.89;73.89
43155;BME280;34212;51.018;13.586;2022-09-17T23:54:31;96917.94;;;10.90;73.85
43155;BME280;34212;51.018;13.586;2022-09-17T23:59:32;96925.13;;;10.96;73.82
